Disclaimer

Please do not use the information listed here in-flight or in-navigation, as they are not provided to us by the airports but are provided by volunteers, so they might be outdated.

Search


Regions


Airport information page

No radio frequency information is available.

Airport informations:
Latitude: 62° 05' 35.70" N
Longitude: 129° 46' 14.42" E
Elevation: 325 feet - 99 meters
Operating hours: 24 hour operations
Operating agency: Civil government, landing fees and diplomatic clearance may be required
Timezone: UTC+9(+10DT) - Last Sunday in March to last Sunday in October
Fuel: N/A

Runway information:
05R/23L - 11155 x 197 feet< - >3400 x 60 meters
05L/23R - 8202 x 161 feet< - >2500 x 49 meters

Recent METARs:
UEEE 182300Z 34002MPS 9999 -SN SCT026 M24/M27 Q1018 R23L/490150 NOSIG RMK QFE754
UEEE 182330Z 32002MPS 5000 -SN SCT028 M24/M27 Q1018 R23L/490150 NOSIG RMK QFE755
UEEE 190000Z 33002MPS 5000 -SN SCT026 M24/M28 Q1018 R23L/490150 NOSIG RMK QFE754

Airport on the map: